Annandale, New Jersey
Current Conditions -  °F | °C
As of 5:53 PM on Wednesday 26 Nov 2014 (Local Time) from KSMQ Reporting Station
Light Rain Light Rain  
Wind Chill: 27°   Ceiling: 3000
Heat Index: 35°   Visibility: 4mi
Dew Point: 32°   Wind: 10mph
Humidity: 89%   Direction: 330°NNW
Pressure: 29.81"   Gusts: NA
Location:  40.65°N, 74.89°W
Report Text: KSMQ 262253Z AUTO 33009KT 4SM -RA BR FEW016 SCT023 OVC030 02/00 A2981 RMK AO2 UPB22E23RAB23SNE22 SLP097 P0004 T00170000
Loading
Personal Weather Stations






























Interactive Weather Map New forecast layout! Learn more

10-Day Weather Forecast

Advertisements
Track Severe Weather on mobile